首页
METAR-TAF:

METAR-TAF

机场 :

Griffiss_Air_Force_Base

羅馬, 紐約州, 美国

纬度: 43-14N, 经度: 075-24W, 海拔: 154米

当前天气观测

该预报发布于17分钟前的06:53 UTC
静风
温度 22°C
湿度 94%
气压 1014 hPa
能見度: 16.1公里
散云层高于4600英尺
多云层高于5500英尺
阴天层高于7000英尺
小雨

METAR: KRME 170653Z AUTO 00000KT 10SM -RA SCT046 BKN055 OVC070 22/21 A2994 RMK AO2 LTG DSNT SW SLP134 P0008 T02220211

时间: 03:10 (07:10 UTC)

预报

该预报发布于25分钟前的06:45 UTC
预报有效从17日的 07点(UTC)到 18日的 06点(UTC)
风速3节,风向多变
能見度: 10公里
少量云层高于2000英尺
阴天层高于6000英尺
小阵雨
短暂存在
从 17日的 07点(UTC)到 17日的 08点(UTC)
能見度: 2.4公里
阴天层高于2000英尺
大雨, 轻雾
从 17日的 1000点(UTC)
风速3节,风向多变
能見度: 1.6公里
阴天层高于1500英尺
小阵雨
从 17日的 1700点(UTC)
风速5节,风向西
能見度: 1.6公里
阴天层高于3000英尺
小阵雨
从 17日的 2200点(UTC)
风速4节,风向多变
能見度: 1.6公里
阴天层高于1800英尺
小阵雨
从 18日的 0200点(UTC)
风速3节,风向多变
能見度: 1.6公里
多云层高于2200英尺
轻雾

TAF: KRME 170645Z 1707/1806 VRB03KT P6SM -SHRA FEW020 OVC060 TEMPO 1707/1708 1 1/2SM +RA BR OVC020 FM171000 VRB03KT 6SM -SHRA OVC015 FM171700 27005KT 4SM -SHRA OVC030 FM172200 VRB04KT 6SM -SHRA OVC018 FM180200 VRB03KT 5SM BR BKN022

超过4000个机场的气象观测和天气预报(METAR&TAF报告)。

可查询的气象台以黄色和红色小点在地图上表示。

将鼠标移到小点上方,可查看气象台名称。

然后点击查看天气观测和预报。

如需切换地图:点击带黑十字的绿色按钮放大地图;点击带横线的绿色按钮缩小地图;或者点击绿色箭头查看邻近地区的地图。


METAR-TAF: